sensor_id;sensor_type;location;lat;lon;timestamp;temperature;humidity
13436;DHT22;6790;49.520;8.504;2023-06-04T00:01:26;15.10;61.20
13436;DHT22;6790;49.520;8.504;2023-06-04T00:03:51;15.20;60.50
13436;DHT22;6790;49.520;8.504;2023-06-04T00:06:18;15.10;60.20
13436;DHT22;6790;49.520;8.504;2023-06-04T00:08:44;14.90;61.10
13436;DHT22;6790;49.520;8.504;2023-06-04T00:11:09;14.80;65.00
13436;DHT22;6790;49.520;8.504;2023-06-04T00:13:35;14.80;64.00
13436;DHT22;6790;49.520;8.504;2023-06-04T00:16:01;14.70;62.50
13436;DHT22;6790;49.520;8.504;2023-06-04T00:18:27;14.60;62.50
13436;DHT22;6790;49.520;8.504;2023-06-04T00:20:52;14.70;66.40
13436;DHT22;6790;49.520;8.504;2023-06-04T00:23:18;14.70;63.00
13436;DHT22;6790;49.520;8.504;2023-06-04T00:25:44;14.70;60.70
13436;DHT22;6790;49.520;8.504;2023-06-04T00:28:09;14.80;62.60
13436;DHT22;6790;49.520;8.504;2023-06-04T00:30:35;14.90;66.90
13436;DHT22;6790;49.520;8.504;2023-06-04T00:33:01;14.80;61.50
13436;DHT22;6790;49.520;8.504;2023-06-04T00:35:26;14.80;61.00
13436;DHT22;6790;49.520;8.504;2023-06-04T00:37:52;14.70;65.20
13436;DHT22;6790;49.520;8.504;2023-06-04T00:40:18;14.60;63.80
13436;DHT22;6790;49.520;8.504;2023-06-04T00:42:44;14.60;65.30
13436;DHT22;6790;49.520;8.504;2023-06-04T00:45:10;14.50;63.50
13436;DHT22;6790;49.520;8.504;2023-06-04T00:47:38;14.50;64.60
13436;DHT22;6790;49.520;8.504;2023-06-04T00:50:04;14.50;64.70
13436;DHT22;6790;49.520;8.504;2023-06-04T00:52:32;14.50;64.80
13436;DHT22;6790;49.520;8.504;2023-06-04T00:54:58;14.40;61.20
13436;DHT22;6790;49.520;8.504;2023-06-04T00:57:24;14.50;65.50
13436;DHT22;6790;49.520;8.504;2023-06-04T00:59:50;14.40;64.20
13436;DHT22;6790;49.520;8.504;2023-06-04T01:02:18;14.30;62.90
13436;DHT22;6790;49.520;8.504;2023-06-04T01:07:21;14.20;66.70
13436;DHT22;6790;49.520;8.504;2023-06-04T01:09:48;14.10;65.90
13436;DHT22;6790;49.520;8.504;2023-06-04T01:12:15;14.00;69.50
13436;DHT22;6790;49.520;8.504;2023-06-04T01:14:41;14.00;70.60
13436;DHT22;6790;49.520;8.504;2023-06-04T01:17:20;13.90;71.40
13436;DHT22;6790;49.520;8.504;2023-06-04T01:25:39;13.80;75.00
13436;DHT22;6790;49.520;8.504;2023-06-04T01:28:08;13.80;76.30
13436;DHT22;6790;49.520;8.504;2023-06-04T01:30:37;13.90;77.20
13436;DHT22;6790;49.520;8.504;2023-06-04T01:33:13;13.80;78.10
13436;DHT22;6790;49.520;8.504;2023-06-04T01:35:40;13.60;79.30
13436;DHT22;6790;49.520;8.504;2023-06-04T01:38:06;13.70;81.60
13436;DHT22;6790;49.520;8.504;2023-06-04T01:40:32;13.60;81.50
13436;DHT22;6790;49.520;8.504;2023-06-04T01:42:59;13.70;80.10
13436;DHT22;6790;49.520;8.504;2023-06-04T01:45:26;13.60;81.50
13436;DHT22;6790;49.520;8.504;2023-06-04T01:47:53;13.60;80.00
13436;DHT22;6790;49.520;8.504;2023-06-04T01:50:19;13.60;81.50
13436;DHT22;6790;49.520;8.504;2023-06-04T01:52:45;13.60;82.70
13436;DHT22;6790;49.520;8.504;2023-06-04T01:55:13;13.50;82.60
13436;DHT22;6790;49.520;8.504;2023-06-04T01:57:41;13.50;81.20
13436;DHT22;6790;49.520;8.504;2023-06-04T02:00:09;13.50;82.40
13436;DHT22;6790;49.520;8.504;2023-06-04T02:02:36;13.40;81.70
13436;DHT22;6790;49.520;8.504;2023-06-04T02:05:05;13.30;83.80
13436;DHT22;6790;49.520;8.504;2023-06-04T02:10:13;13.30;81.90
13436;DHT22;6790;49.520;8.504;2023-06-04T02:12:51;13.30;81.80
13436;DHT22;6790;49.520;8.504;2023-06-04T02:15:19;13.30;81.50
13436;DHT22;6790;49.520;8.504;2023-06-04T02:17:45;13.20;82.00
13436;DHT22;6790;49.520;8.504;2023-06-04T02:20:11;13.20;82.70
13436;DHT22;6790;49.520;8.504;2023-06-04T02:22:37;13.10;82.60
13436;DHT22;6790;49.520;8.504;2023-06-04T02:25:04;13.10;82.00
13436;DHT22;6790;49.520;8.504;2023-06-04T02:27:30;13.10;82.10
13436;DHT22;6790;49.520;8.504;2023-06-04T02:29:56;13.10;83.30
13436;DHT22;6790;49.520;8.504;2023-06-04T02:32:21;13.00;82.10
13436;DHT22;6790;49.520;8.504;2023-06-04T02:34:47;12.90;81.10
13436;DHT22;6790;49.520;8.504;2023-06-04T02:37:14;13.00;82.30
13436;DHT22;6790;49.520;8.504;2023-06-04T02:39:40;12.90;82.60
13436;DHT22;6790;49.520;8.504;2023-06-04T02:42:06;12.90;83.00
13436;DHT22;6790;49.520;8.504;2023-06-04T02:44:32;12.80;84.20
13436;DHT22;6790;49.520;8.504;2023-06-04T02:46:58;12.70;83.80
13436;DHT22;6790;49.520;8.504;2023-06-04T02:49:23;12.60;84.00
13436;DHT22;6790;49.520;8.504;2023-06-04T02:51:50;12.60;83.90
13436;DHT22;6790;49.520;8.504;2023-06-04T02:54:16;12.50;83.70
13436;DHT22;6790;49.520;8.504;2023-06-04T02:56:42;12.50;83.40
13436;DHT22;6790;49.520;8.504;2023-06-04T02:59:08;12.40;84.90
13436;DHT22;6790;49.520;8.504;2023-06-04T03:01:34;12.40;83.40
13436;DHT22;6790;49.520;8.504;2023-06-04T03:04:00;12.40;85.40
13436;DHT22;6790;49.520;8.504;2023-06-04T03:06:29;12.30;83.40
13436;DHT22;6790;49.520;8.504;2023-06-04T03:08:55;12.20;83.70
13436;DHT22;6790;49.520;8.504;2023-06-04T03:11:21;12.20;85.10
13436;DHT22;6790;49.520;8.504;2023-06-04T03:13:48;12.20;85.20
13436;DHT22;6790;49.520;8.504;2023-06-04T03:16:14;12.10;84.10
13436;DHT22;6790;49.520;8.504;2023-06-04T03:18:41;12.10;85.70
13436;DHT22;6790;49.520;8.504;2023-06-04T03:21:07;12.10;84.70
13436;DHT22;6790;49.520;8.504;2023-06-04T03:23:34;12.00;86.50
13436;DHT22;6790;49.520;8.504;2023-06-04T03:26:04;12.00;83.50
13436;DHT22;6790;49.520;8.504;2023-06-04T03:28:31;11.90;85.10
13436;DHT22;6790;49.520;8.504;2023-06-04T03:30:57;11.90;85.10
13436;DHT22;6790;49.520;8.504;2023-06-04T03:33:23;11.90;84.10
13436;DHT22;6790;49.520;8.504;2023-06-04T03:35:50;11.90;86.40
13436;DHT22;6790;49.520;8.504;2023-06-04T03:38:18;12.00;85.50
13436;DHT22;6790;49.520;8.504;2023-06-04T03:40:44;11.90;85.70
13436;DHT22;6790;49.520;8.504;2023-06-04T03:43:11;11.90;87.00
13436;DHT22;6790;49.520;8.504;2023-06-04T03:45:36;11.90;86.70
13436;DHT22;6790;49.520;8.504;2023-06-04T03:48:02;11.90;86.20
13436;DHT22;6790;49.520;8.504;2023-06-04T03:50:28;11.90;84.50
13436;DHT22;6790;49.520;8.504;2023-06-04T03:52:54;11.90;84.60
13436;DHT22;6790;49.520;8.504;2023-06-04T03:55:19;12.00;88.10
13436;DHT22;6790;49.520;8.504;2023-06-04T03:57:45;12.00;86.20
13436;DHT22;6790;49.520;8.504;2023-06-04T04:00:11;12.00;84.90
13436;DHT22;6790;49.520;8.504;2023-06-04T04:02:39;12.10;84.90
13436;DHT22;6790;49.520;8.504;2023-06-04T04:05:06;12.10;83.90
13436;DHT22;6790;49.520;8.504;2023-06-04T04:07:32;12.20;84.80
13436;DHT22;6790;49.520;8.504;2023-06-04T04:09:57;12.20;83.30
13436;DHT22;6790;49.520;8.504;2023-06-04T04:12:23;12.20;83.30
13436;DHT22;6790;49.520;8.504;2023-06-04T04:14:49;12.10;84.70
13436;DHT22;6790;49.520;8.504;2023-06-04T04:17:15;12.20;84.70
13436;DHT22;6790;49.520;8.504;2023-06-04T04:19:41;12.20;84.30
13436;DHT22;6790;49.520;8.504;2023-06-04T04:22:06;12.30;83.20
13436;DHT22;6790;49.520;8.504;2023-06-04T04:24:34;12.30;83.80
13436;DHT22;6790;49.520;8.504;2023-06-04T04:27:02;12.40;82.90
13436;DHT22;6790;49.520;8.504;2023-06-04T04:29:29;12.40;83.10
13436;DHT22;6790;49.520;8.504;2023-06-04T04:31:59;12.50;82.70
13436;DHT22;6790;49.520;8.504;2023-06-04T04:34:26;12.60;83.70
13436;DHT22;6790;49.520;8.504;2023-06-04T04:36:53;12.50;80.20
13436;DHT22;6790;49.520;8.504;2023-06-04T04:39:27;12.50;82.00
13436;DHT22;6790;49.520;8.504;2023-06-04T04:41:54;12.50;81.80
13436;DHT22;6790;49.520;8.504;2023-06-04T04:44:21;12.60;83.50
13436;DHT22;6790;49.520;8.504;2023-06-04T04:46:48;12.60;83.40
13436;DHT22;6790;49.520;8.504;2023-06-04T04:49:14;12.70;83.20
13436;DHT22;6790;49.520;8.504;2023-06-04T04:51:39;12.70;80.00
13436;DHT22;6790;49.520;8.504;2023-06-04T04:54:05;12.70;81.10
13436;DHT22;6790;49.520;8.504;2023-06-04T04:56:33;12.90;81.80
13436;DHT22;6790;49.520;8.504;2023-06-04T04:59:00;12.90;79.90
13436;DHT22;6790;49.520;8.504;2023-06-04T05:01:26;13.10;79.80
13436;DHT22;6790;49.520;8.504;2023-06-04T05:03:52;13.20;79.20
13436;DHT22;6790;49.520;8.504;2023-06-04T05:06:17;13.30;78.70
13436;DHT22;6790;49.520;8.504;2023-06-04T05:08:43;13.50;80.50
13436;DHT22;6790;49.520;8.504;2023-06-04T05:11:09;13.60;79.10
13436;DHT22;6790;49.520;8.504;2023-06-04T05:13:35;13.50;79.20
13436;DHT22;6790;49.520;8.504;2023-06-04T05:16:01;13.50;79.90
13436;DHT22;6790;49.520;8.504;2023-06-04T05:18:36;13.50;79.00
13436;DHT22;6790;49.520;8.504;2023-06-04T05:21:06;13.40;79.80
13436;DHT22;6790;49.520;8.504;2023-06-04T05:23:32;13.60;79.60
13436;DHT22;6790;49.520;8.504;2023-06-04T05:26:00;13.70;80.00
13436;DHT22;6790;49.520;8.504;2023-06-04T05:28:27;13.90;75.70
13436;DHT22;6790;49.520;8.504;2023-06-04T05:30:53;14.10;77.80
13436;DHT22;6790;49.520;8.504;2023-06-04T05:33:24;14.20;75.60
13436;DHT22;6790;49.520;8.504;2023-06-04T05:35:50;14.30;74.50
13436;DHT22;6790;49.520;8.504;2023-06-04T05:38:25;14.40;74.00
13436;DHT22;6790;49.520;8.504;2023-06-04T05:40:54;14.50;72.50
13436;DHT22;6790;49.520;8.504;2023-06-04T05:43:20;14.50;75.20
13436;DHT22;6790;49.520;8.504;2023-06-04T05:45:46;14.70;74.50
13436;DHT22;6790;49.520;8.504;2023-06-04T05:48:12;14.90;68.50
13436;DHT22;6790;49.520;8.504;2023-06-04T05:50:38;15.10;69.20
13436;DHT22;6790;49.520;8.504;2023-06-04T05:53:04;15.20;68.80
13436;DHT22;6790;49.520;8.504;2023-06-04T05:55:30;15.30;72.30
13436;DHT22;6790;49.520;8.504;2023-06-04T05:57:56;15.40;67.10
13436;DHT22;6790;49.520;8.504;2023-06-04T06:00:22;15.60;65.90
13436;DHT22;6790;49.520;8.504;2023-06-04T06:02:49;15.80;66.00
13436;DHT22;6790;49.520;8.504;2023-06-04T06:05:15;15.80;62.60
13436;DHT22;6790;49.520;8.504;2023-06-04T06:07:42;16.00;62.30
13436;DHT22;6790;49.520;8.504;2023-06-04T06:10:09;16.10;61.60
13436;DHT22;6790;49.520;8.504;2023-06-04T06:12:35;16.30;59.30
13436;DHT22;6790;49.520;8.504;2023-06-04T06:15:01;16.30;59.50
13436;DHT22;6790;49.520;8.504;2023-06-04T06:17:26;16.40;59.00
13436;DHT22;6790;49.520;8.504;2023-06-04T06:19:54;16.60;59.60
13436;DHT22;6790;49.520;8.504;2023-06-04T06:22:20;16.70;59.50
13436;DHT22;6790;49.520;8.504;2023-06-04T06:24:46;16.80;57.70
13436;DHT22;6790;49.520;8.504;2023-06-04T06:27:14;16.90;57.40
13436;DHT22;6790;49.520;8.504;2023-06-04T06:29:41;17.10;57.10
13436;DHT22;6790;49.520;8.504;2023-06-04T06:32:07;17.20;55.80
13436;DHT22;6790;49.520;8.504;2023-06-04T06:34:33;17.30;56.10
13436;DHT22;6790;49.520;8.504;2023-06-04T06:36:59;17.50;54.80
13436;DHT22;6790;49.520;8.504;2023-06-04T06:39:25;17.60;54.30
13436;DHT22;6790;49.520;8.504;2023-06-04T06:41:50;17.60;52.40
13436;DHT22;6790;49.520;8.504;2023-06-04T06:44:16;17.80;51.60
13436;DHT22;6790;49.520;8.504;2023-06-04T06:46:42;17.80;52.40
13436;DHT22;6790;49.520;8.504;2023-06-04T06:49:07;18.00;53.10
13436;DHT22;6790;49.520;8.504;2023-06-04T06:51:33;18.10;48.80
13436;DHT22;6790;49.520;8.504;2023-06-04T06:53:59;18.30;50.20
13436;DHT22;6790;49.520;8.504;2023-06-04T06:56:25;18.50;50.70
13436;DHT22;6790;49.520;8.504;2023-06-04T06:58:51;18.50;48.00
13436;DHT22;6790;49.520;8.504;2023-06-04T07:01:17;18.60;48.50
13436;DHT22;6790;49.520;8.504;2023-06-04T07:03:43;18.70;48.10
13436;DHT22;6790;49.520;8.504;2023-06-04T07:06:08;18.80;44.80
13436;DHT22;6790;49.520;8.504;2023-06-04T07:08:34;18.70;43.50
13436;DHT22;6790;49.520;8.504;2023-06-04T07:11:01;19.00;44.60
13436;DHT22;6790;49.520;8.504;2023-06-04T07:13:28;19.10;44.70
13436;DHT22;6790;49.520;8.504;2023-06-04T07:15:54;19.20;43.50
13436;DHT22;6790;49.520;8.504;2023-06-04T07:18:20;19.10;42.20
13436;DHT22;6790;49.520;8.504;2023-06-04T07:20:46;19.10;45.70
13436;DHT22;6790;49.520;8.504;2023-06-04T07:23:11;19.30;44.20
13436;DHT22;6790;49.520;8.504;2023-06-04T07:25:37;19.60;44.90
13436;DHT22;6790;49.520;8.504;2023-06-04T07:28:03;19.60;41.00
13436;DHT22;6790;49.520;8.504;2023-06-04T07:30:31;20.00;40.30
13436;DHT22;6790;49.520;8.504;2023-06-04T07:32:59;20.10;41.50
13436;DHT22;6790;49.520;8.504;2023-06-04T07:35:25;20.10;40.30
13436;DHT22;6790;49.520;8.504;2023-06-04T07:37:51;20.30;39.30
13436;DHT22;6790;49.520;8.504;2023-06-04T07:40:17;20.30;40.90
13436;DHT22;6790;49.520;8.504;2023-06-04T07:42:44;20.40;38.50
13436;DHT22;6790;49.520;8.504;2023-06-04T07:45:10;20.70;42.50
13436;DHT22;6790;49.520;8.504;2023-06-04T07:47:36;21.00;38.70
13436;DHT22;6790;49.520;8.504;2023-06-04T07:50:03;21.30;41.60
13436;DHT22;6790;49.520;8.504;2023-06-04T07:52:30;21.20;37.90
13436;DHT22;6790;49.520;8.504;2023-06-04T07:54:55;21.30;38.80
13436;DHT22;6790;49.520;8.504;2023-06-04T07:57:25;21.30;35.80
13436;DHT22;6790;49.520;8.504;2023-06-04T07:59:50;21.40;38.70
13436;DHT22;6790;49.520;8.504;2023-06-04T08:02:17;21.00;38.20
13436;DHT22;6790;49.520;8.504;2023-06-04T08:04:43;21.10;38.50
13436;DHT22;6790;49.520;8.504;2023-06-04T08:07:09;20.90;35.60
13436;DHT22;6790;49.520;8.504;2023-06-04T08:09:35;20.90;37.10
13436;DHT22;6790;49.520;8.504;2023-06-04T08:12:01;20.70;37.50
13436;DHT22;6790;49.520;8.504;2023-06-04T08:14:27;20.60;40.70
13436;DHT22;6790;49.520;8.504;2023-06-04T08:16:53;20.40;40.20
13436;DHT22;6790;49.520;8.504;2023-06-04T08:19:19;20.40;42.20
13436;DHT22;6790;49.520;8.504;2023-06-04T08:21:45;20.50;41.80
13436;DHT22;6790;49.520;8.504;2023-06-04T08:24:12;20.90;41.30
13436;DHT22;6790;49.520;8.504;2023-06-04T08:26:39;21.30;40.10
13436;DHT22;6790;49.520;8.504;2023-06-04T08:29:05;21.50;37.40
13436;DHT22;6790;49.520;8.504;2023-06-04T08:31:31;21.50;38.60
13436;DHT22;6790;49.520;8.504;2023-06-04T08:33:57;21.70;39.70
13436;DHT22;6790;49.520;8.504;2023-06-04T08:36:23;21.90;40.50
13436;DHT22;6790;49.520;8.504;2023-06-04T08:38:49;22.00;39.40
13436;DHT22;6790;49.520;8.504;2023-06-04T08:41:27;22.40;35.40
13436;DHT22;6790;49.520;8.504;2023-06-04T08:43:56;22.50;34.80
13436;DHT22;6790;49.520;8.504;2023-06-04T08:46:28;22.70;35.50
13436;DHT22;6790;49.520;8.504;2023-06-04T08:48:56;22.70;34.30
13436;DHT22;6790;49.520;8.504;2023-06-04T08:51:28;22.50;32.20
13436;DHT22;6790;49.520;8.504;2023-06-04T08:53:58;22.40;31.80
13436;DHT22;6790;49.520;8.504;2023-06-04T08:56:24;22.70;34.60
13436;DHT22;6790;49.520;8.504;2023-06-04T08:58:51;23.00;35.10
13436;DHT22;6790;49.520;8.504;2023-06-04T09:01:18;23.20;36.50
13436;DHT22;6790;49.520;8.504;2023-06-04T09:03:44;23.50;33.80
13436;DHT22;6790;49.520;8.504;2023-06-04T09:06:11;23.50;35.10
13436;DHT22;6790;49.520;8.504;2023-06-04T09:08:39;23.70;33.90
13436;DHT22;6790;49.520;8.504;2023-06-04T09:11:10;23.60;30.10
13436;DHT22;6790;49.520;8.504;2023-06-04T09:13:37;23.90;33.20
13436;DHT22;6790;49.520;8.504;2023-06-04T09:16:05;24.00;34.60
13436;DHT22;6790;49.520;8.504;2023-06-04T09:18:31;23.70;33.20
13436;DHT22;6790;49.520;8.504;2023-06-04T09:21:05;23.70;36.20
13436;DHT22;6790;49.520;8.504;2023-06-04T09:26:09;23.90;30.50
13436;DHT22;6790;49.520;8.504;2023-06-04T09:28:43;24.20;29.50
13436;DHT22;6790;49.520;8.504;2023-06-04T09:31:17;24.40;30.90
13436;DHT22;6790;49.520;8.504;2023-06-04T09:33:47;24.60;33.20
13436;DHT22;6790;49.520;8.504;2023-06-04T09:36:15;24.80;27.30
13436;DHT22;6790;49.520;8.504;2023-06-04T09:38:41;24.40;29.50
13436;DHT22;6790;49.520;8.504;2023-06-04T09:41:17;24.70;29.00
13436;DHT22;6790;49.520;8.504;2023-06-04T09:43:46;24.90;27.40
13436;DHT22;6790;49.520;8.504;2023-06-04T09:46:18;25.20;28.80
13436;DHT22;6790;49.520;8.504;2023-06-04T09:48:44;25.10;26.80
13436;DHT22;6790;49.520;8.504;2023-06-04T09:51:11;25.30;26.90
13436;DHT22;6790;49.520;8.504;2023-06-04T09:53:41;25.10;22.90
13436;DHT22;6790;49.520;8.504;2023-06-04T09:56:08;24.80;24.00
13436;DHT22;6790;49.520;8.504;2023-06-04T09:58:37;24.40;26.60
13436;DHT22;6790;49.520;8.504;2023-06-04T10:01:05;24.10;28.90
13436;DHT22;6790;49.520;8.504;2023-06-04T10:03:33;23.90;26.80
13436;DHT22;6790;49.520;8.504;2023-06-04T10:06:05;23.60;25.10
13436;DHT22;6790;49.520;8.504;2023-06-04T10:08:32;23.40;24.80
13436;DHT22;6790;49.520;8.504;2023-06-04T10:11:00;23.30;26.00
13436;DHT22;6790;49.520;8.504;2023-06-04T10:13:29;23.70;24.80
13436;DHT22;6790;49.520;8.504;2023-06-04T10:15:57;24.30;27.20
13436;DHT22;6790;49.520;8.504;2023-06-04T10:18:24;24.70;23.00
13436;DHT22;6790;49.520;8.504;2023-06-04T10:20:53;24.70;22.90
13436;DHT22;6790;49.520;8.504;2023-06-04T10:23:21;24.70;23.30
13436;DHT22;6790;49.520;8.504;2023-06-04T10:25:49;24.70;23.90
13436;DHT22;6790;49.520;8.504;2023-06-04T10:28:18;25.10;24.90
13436;DHT22;6790;49.520;8.504;2023-06-04T10:30:48;25.10;22.20
13436;DHT22;6790;49.520;8.504;2023-06-04T10:33:17;25.40;22.20
13436;DHT22;6790;49.520;8.504;2023-06-04T10:35:45;25.60;21.90
13436;DHT22;6790;49.520;8.504;2023-06-04T10:38:13;26.00;25.00
13436;DHT22;6790;49.520;8.504;2023-06-04T10:40:40;25.70;23.90
13436;DHT22;6790;49.520;8.504;2023-06-04T10:45:33;26.00;20.70
13436;DHT22;6790;49.520;8.504;2023-06-04T10:48:06;25.60;19.70
13436;DHT22;6790;49.520;8.504;2023-06-04T10:50:34;25.20;20.50
13436;DHT22;6790;49.520;8.504;2023-06-04T10:53:00;24.90;20.60
13436;DHT22;6790;49.520;8.504;2023-06-04T10:55:30;24.60;21.40
13436;DHT22;6790;49.520;8.504;2023-06-04T10:57:58;24.50;22.50
13436;DHT22;6790;49.520;8.504;2023-06-04T11:00:36;24.60;21.30
13436;DHT22;6790;49.520;8.504;2023-06-04T11:03:05;24.70;21.00
13436;DHT22;6790;49.520;8.504;2023-06-04T11:08:08;25.50;20.40
13436;DHT22;6790;49.520;8.504;2023-06-04T11:10:38;25.70;20.60
13436;DHT22;6790;49.520;8.504;2023-06-04T11:13:07;25.90;20.30
13436;DHT22;6790;49.520;8.504;2023-06-04T11:15:41;25.90;20.80
13436;DHT22;6790;49.520;8.504;2023-06-04T11:18:08;26.10;19.70
13436;DHT22;6790;49.520;8.504;2023-06-04T11:20:34;26.20;22.50
13436;DHT22;6790;49.520;8.504;2023-06-04T11:23:00;26.30;20.60
13436;DHT22;6790;49.520;8.504;2023-06-04T11:25:30;26.30;21.20
13436;DHT22;6790;49.520;8.504;2023-06-04T11:28:00;25.50;19.10
13436;DHT22;6790;49.520;8.504;2023-06-04T11:30:27;25.40;20.00
13436;DHT22;6790;49.520;8.504;2023-06-04T11:33:04;25.60;19.60
13436;DHT22;6790;49.520;8.504;2023-06-04T11:35:30;25.90;20.70
13436;DHT22;6790;49.520;8.504;2023-06-04T11:38:04;26.40;21.60
13436;DHT22;6790;49.520;8.504;2023-06-04T11:40:29;26.70;18.20
13436;DHT22;6790;49.520;8.504;2023-06-04T11:42:56;26.40;19.70
13436;DHT22;6790;49.520;8.504;2023-06-04T11:45:22;26.00;18.10
13436;DHT22;6790;49.520;8.504;2023-06-04T11:50:18;26.90;19.00
13436;DHT22;6790;49.520;8.504;2023-06-04T11:52:45;26.50;18.10
13436;DHT22;6790;49.520;8.504;2023-06-04T11:55:13;26.50;18.10
13436;DHT22;6790;49.520;8.504;2023-06-04T11:57:40;26.40;17.70
13436;DHT22;6790;49.520;8.504;2023-06-04T12:00:09;25.90;17.60
13436;DHT22;6790;49.520;8.504;2023-06-04T12:02:48;25.60;18.90
13436;DHT22;6790;49.520;8.504;2023-06-04T12:05:16;26.20;18.90
13436;DHT22;6790;49.520;8.504;2023-06-04T12:07:44;26.40;21.40
13436;DHT22;6790;49.520;8.504;2023-06-04T12:10:11;26.60;18.70
13436;DHT22;6790;49.520;8.504;2023-06-04T12:12:37;27.00;19.20
13436;DHT22;6790;49.520;8.504;2023-06-04T12:15:03;27.00;18.40
13436;DHT22;6790;49.520;8.504;2023-06-04T12:17:31;26.70;20.60
13436;DHT22;6790;49.520;8.504;2023-06-04T12:19:57;27.00;19.10
13436;DHT22;6790;49.520;8.504;2023-06-04T12:22:24;27.10;19.40
13436;DHT22;6790;49.520;8.504;2023-06-04T12:24:55;27.20;17.70
13436;DHT22;6790;49.520;8.504;2023-06-04T12:27:23;26.90;17.50
13436;DHT22;6790;49.520;8.504;2023-06-04T12:30:09;26.60;17.30
13436;DHT22;6790;49.520;8.504;2023-06-04T12:32:35;27.00;17.30
13436;DHT22;6790;49.520;8.504;2023-06-04T12:35:01;27.00;18.30
13436;DHT22;6790;49.520;8.504;2023-06-04T12:37:27;26.90;17.60
13436;DHT22;6790;49.520;8.504;2023-06-04T12:39:54;27.00;17.20
13436;DHT22;6790;49.520;8.504;2023-06-04T12:42:20;27.00;16.30
13436;DHT22;6790;49.520;8.504;2023-06-04T12:44:46;26.90;17.20
13436;DHT22;6790;49.520;8.504;2023-06-04T12:47:12;27.00;18.30
13436;DHT22;6790;49.520;8.504;2023-06-04T12:49:38;27.10;16.60
13436;DHT22;6790;49.520;8.504;2023-06-04T12:52:05;27.20;17.40
13436;DHT22;6790;49.520;8.504;2023-06-04T12:54:31;27.30;16.10
13436;DHT22;6790;49.520;8.504;2023-06-04T12:56:58;27.10;15.90
13436;DHT22;6790;49.520;8.504;2023-06-04T12:59:25;27.10;16.90
13436;DHT22;6790;49.520;8.504;2023-06-04T13:01:51;27.20;15.20
13436;DHT22;6790;49.520;8.504;2023-06-04T13:04:17;27.00;17.10
13436;DHT22;6790;49.520;8.504;2023-06-04T13:06:43;27.30;16.80
13436;DHT22;6790;49.520;8.504;2023-06-04T13:09:11;27.70;15.80
13436;DHT22;6790;49.520;8.504;2023-06-04T13:11:38;28.30;16.80
13436;DHT22;6790;49.520;8.504;2023-06-04T13:14:05;28.50;16.40
13436;DHT22;6790;49.520;8.504;2023-06-04T13:16:30;27.40;15.50
13436;DHT22;6790;49.520;8.504;2023-06-04T13:18:56;27.40;16.30
13436;DHT22;6790;49.520;8.504;2023-06-04T13:21:22;27.50;14.40
13436;DHT22;6790;49.520;8.504;2023-06-04T13:23:48;27.30;14.50
13436;DHT22;6790;49.520;8.504;2023-06-04T13:26:15;27.40;14.10
13436;DHT22;6790;49.520;8.504;2023-06-04T13:28:41;27.20;14.10
13436;DHT22;6790;49.520;8.504;2023-06-04T13:31:07;26.80;14.40
13436;DHT22;6790;49.520;8.504;2023-06-04T13:33:32;27.00;14.90
13436;DHT22;6790;49.520;8.504;2023-06-04T13:36:03;26.60;16.40
13436;DHT22;6790;49.520;8.504;2023-06-04T13:38:29;26.30;15.10
13436;DHT22;6790;49.520;8.504;2023-06-04T13:40:54;26.50;15.10
13436;DHT22;6790;49.520;8.504;2023-06-04T13:43:20;26.60;13.50
13436;DHT22;6790;49.520;8.504;2023-06-04T13:45:46;26.10;14.70
13436;DHT22;6790;49.520;8.504;2023-06-04T13:48:12;25.80;15.20
13436;DHT22;6790;49.520;8.504;2023-06-04T13:50:38;26.60;16.10
13436;DHT22;6790;49.520;8.504;2023-06-04T13:53:04;26.40;15.00
13436;DHT22;6790;49.520;8.504;2023-06-04T13:55:30;26.70;16.00
13436;DHT22;6790;49.520;8.504;2023-06-04T13:57:55;27.00;14.90
13436;DHT22;6790;49.520;8.504;2023-06-04T14:00:21;26.70;17.60
13436;DHT22;6790;49.520;8.504;2023-06-04T14:02:48;26.70;14.70
13436;DHT22;6790;49.520;8.504;2023-06-04T14:05:14;27.20;13.30
13436;DHT22;6790;49.520;8.504;2023-06-04T14:07:42;27.80;13.20
13436;DHT22;6790;49.520;8.504;2023-06-04T14:10:09;27.40;14.20
13436;DHT22;6790;49.520;8.504;2023-06-04T14:12:38;27.00;12.20
13436;DHT22;6790;49.520;8.504;2023-06-04T14:15:10;27.10;13.70
13436;DHT22;6790;49.520;8.504;2023-06-04T14:17:37;26.70;14.10
13436;DHT22;6790;49.520;8.504;2023-06-04T14:20:05;26.40;14.50
13436;DHT22;6790;49.520;8.504;2023-06-04T14:22:38;26.60;13.90
13436;DHT22;6790;49.520;8.504;2023-06-04T14:25:06;26.30;12.40
13436;DHT22;6790;49.520;8.504;2023-06-04T14:27:33;26.20;16.10
13436;DHT22;6790;49.520;8.504;2023-06-04T14:30:00;25.90;13.20
13436;DHT22;6790;49.520;8.504;2023-06-04T14:32:29;25.90;15.00
13436;DHT22;6790;49.520;8.504;2023-06-04T14:34:54;26.20;14.20
13436;DHT22;6790;49.520;8.504;2023-06-04T14:37:20;26.40;14.50
13436;DHT22;6790;49.520;8.504;2023-06-04T14:39:47;26.30;13.30
13436;DHT22;6790;49.520;8.504;2023-06-04T14:42:12;26.00;13.20
13436;DHT22;6790;49.520;8.504;2023-06-04T14:44:38;25.80;14.10
13436;DHT22;6790;49.520;8.504;2023-06-04T14:47:04;25.70;13.20
13436;DHT22;6790;49.520;8.504;2023-06-04T14:49:30;25.90;12.80
13436;DHT22;6790;49.520;8.504;2023-06-04T14:51:56;26.00;13.70
13436;DHT22;6790;49.520;8.504;2023-06-04T14:54:22;26.20;14.50
13436;DHT22;6790;49.520;8.504;2023-06-04T14:56:48;25.90;15.20
13436;DHT22;6790;49.520;8.504;2023-06-04T14:59:13;25.80;15.50
13436;DHT22;6790;49.520;8.504;2023-06-04T15:01:39;26.00;16.50
13436;DHT22;6790;49.520;8.504;2023-06-04T15:04:06;26.20;15.20
13436;DHT22;6790;49.520;8.504;2023-06-04T15:06:32;26.00;15.60
13436;DHT22;6790;49.520;8.504;2023-06-04T15:08:58;25.90;15.10
13436;DHT22;6790;49.520;8.504;2023-06-04T15:11:25;25.80;15.30
13436;DHT22;6790;49.520;8.504;2023-06-04T15:13:52;25.90;15.30
13436;DHT22;6790;49.520;8.504;2023-06-04T15:16:18;25.80;14.40
13436;DHT22;6790;49.520;8.504;2023-06-04T15:18:44;25.70;13.90
13436;DHT22;6790;49.520;8.504;2023-06-04T15:21:09;26.00;14.80
13436;DHT22;6790;49.520;8.504;2023-06-04T15:23:35;26.00;14.50
13436;DHT22;6790;49.520;8.504;2023-06-04T15:26:01;26.00;15.80
13436;DHT22;6790;49.520;8.504;2023-06-04T15:28:26;25.80;14.90
13436;DHT22;6790;49.520;8.504;2023-06-04T15:30:52;25.80;15.60
13436;DHT22;6790;49.520;8.504;2023-06-04T15:33:18;26.00;14.50
13436;DHT22;6790;49.520;8.504;2023-06-04T15:35:43;26.40;14.20
13436;DHT22;6790;49.520;8.504;2023-06-04T15:38:09;26.30;13.70
13436;DHT22;6790;49.520;8.504;2023-06-04T15:40:35;26.10;14.80
13436;DHT22;6790;49.520;8.504;2023-06-04T15:43:00;25.90;15.80
13436;DHT22;6790;49.520;8.504;2023-06-04T15:45:26;25.90;14.30
13436;DHT22;6790;49.520;8.504;2023-06-04T15:47:52;26.10;16.10
13436;DHT22;6790;49.520;8.504;2023-06-04T15:50:18;25.90;14.80
13436;DHT22;6790;49.520;8.504;2023-06-04T15:52:44;25.70;15.90
13436;DHT22;6790;49.520;8.504;2023-06-04T15:55:11;25.80;16.90
13436;DHT22;6790;49.520;8.504;2023-06-04T15:57:37;25.70;15.60
13436;DHT22;6790;49.520;8.504;2023-06-04T16:00:03;25.80;16.70
13436;DHT22;6790;49.520;8.504;2023-06-04T16:02:29;25.70;14.80
13436;DHT22;6790;49.520;8.504;2023-06-04T16:04:56;25.70;17.30